Time;durP1;ratioP1;P1;durP2;ratioP2;P2;SDS_P1;SDS_P2;PMS_P1;PMS_P2;Temp;Humidity;BMP_temperature;BMP_pressure;BME280_temperature;BME280_humidity;BME280_pressure;Samples;Min_cycle;Max_cycle;Signal;HPM_P1;HPM_P2
2022/05/31 00:00:04;;;;;;;6.93;2.78;;;8.70;99.90;;;;;;4996392;28;20022;-82
2022/05/31 00:02:29;;;;;;;5.70;2.60;;;8.70;99.90;;;;;;4301997;28;10000133;-81
2022/05/31 00:04:55;;;;;;;4.93;2.88;;;8.70;99.90;;;;;;4995384;28;20057;-82
2022/05/31 00:07:21;;;;;;;5.40;2.33;;;8.70;99.90;;;;;;4999705;28;20033;-82
2022/05/31 00:09:47;;;;;;;4.55;2.30;;;8.70;99.90;;;;;;4998724;28;20018;-81
2022/05/31 00:12:13;;;;;;;7.43;2.78;;;8.70;99.90;;;;;;4991348;28;20061;-81
2022/05/31 00:14:39;;;;;;;4.55;2.72;;;8.70;99.90;;;;;;4994819;28;20045;-82
2022/05/31 00:17:06;;;;;;;5.45;3.05;;;8.70;99.90;;;;;;5004598;28;20513;-82
2022/05/31 00:19:32;;;;;;;4.75;2.95;;;8.60;99.90;;;;;;4990884;28;20034;-81
2022/05/31 00:22:12;;;;;;;6.93;3.63;;;8.50;99.90;;;;;;4990867;28;20026;-81
2022/05/31 00:24:39;;;;;;;6.68;3.40;;;8.50;99.90;;;;;;5005428;28;20085;-81
2022/05/31 00:27:09;;;;;;;6.75;3.55;;;8.40;99.90;;;;;;5001351;28;20022;-82
2022/05/31 00:29:35;;;;;;;6.97;3.45;;;8.40;99.90;;;;;;5000234;28;20084;-82
2022/05/31 00:32:03;;;;;;;5.75;3.08;;;8.30;99.90;;;;;;5004515;28;20034;-82
2022/05/31 00:34:32;;;;;;;7.88;3.67;;;8.10;99.90;;;;;;5003453;28;20034;-82
2022/05/31 00:36:58;;;;;;;4.43;3.35;;;8.10;99.90;;;;;;5008549;28;20029;-82
2022/05/31 00:39:24;;;;;;;7.40;3.63;;;8.10;99.90;;;;;;4993760;28;20028;-82
2022/05/31 00:42:17;;;;;;;5.57;3.25;;;8.00;99.90;;;;;;5004313;28;20038;-82
2022/05/31 00:44:42;;;;;;;6.63;3.30;;;8.00;99.90;;;;;;5002311;28;20490;-82
2022/05/31 00:47:11;;;;;;;7.40;3.67;;;8.00;99.90;;;;;;5005253;28;20030;-81
2022/05/31 00:49:48;;;;;;;5.93;3.28;;;8.00;99.90;;;;;;4998827;28;20426;-82
2022/05/31 00:52:42;;;;;;;5.57;3.50;;;8.00;99.90;;;;;;5002148;28;20026;-81
2022/05/31 00:55:14;;;;;;;5.28;3.17;;;8.10;99.90;;;;;;4995760;28;20037;-81
2022/05/31 00:57:48;;;;;;;5.40;3.20;;;8.10;99.90;;;;;;4998206;28;20034;-81
2022/05/31 01:00:15;;;;;;;6.55;3.50;;;8.10;99.90;;;;;;4999253;28;20064;-81
2022/05/31 01:02:44;;;;;;;7.40;3.22;;;8.00;99.90;;;;;;5004954;28;20797;-81
2022/05/31 01:05:12;;;;;;;7.38;3.42;;;8.10;99.90;;;;;;5001362;28;20493;-81
2022/05/31 01:07:37;;;;;;;6.93;3.33;;;8.10;99.90;;;;;;5000930;28;20034;-81
2022/05/31 01:10:05;;;;;;;6.97;3.22;;;8.10;99.90;;;;;;4993193;28;20038;-81
2022/05/31 01:12:32;;;;;;;7.13;3.95;;;8.10;99.90;;;;;;4997187;28;20034;-82
2022/05/31 01:14:59;;;;;;;3.85;3.28;;;8.10;99.90;;;;;;5004827;28;20088;-81
2022/05/31 01:17:25;;;;;;;6.13;3.40;;;8.10;99.90;;;;;;4997682;28;20105;-81
2022/05/31 01:20:01;;;;;;;5.68;3.65;;;8.00;99.90;;;;;;4995416;28;20050;-81
2022/05/31 01:22:37;;;;;;;6.25;3.55;;;8.00;99.90;;;;;;4998218;28;20022;-82
2022/05/31 01:25:23;;;;;;;6.93;4.00;;;8.00;99.90;;;;;;4999186;28;20397;-82
2022/05/31 01:28:03;;;;;;;4.82;3.42;;;8.00;99.90;;;;;;5004269;28;20038;-81
2022/05/31 01:30:31;;;;;;;12.30;3.88;;;8.00;99.90;;;;;;4995970;28;20094;-81
2022/05/31 01:33:08;;;;;;;8.55;4.07;;;8.00;99.90;;;;;;5000943;28;20060;-81
2022/05/31 01:35:35;;;;;;;8.90;3.97;;;7.90;99.90;;;;;;5000603;28;20117;-80
2022/05/31 01:38:17;;;;;;;5.28;3.63;;;7.90;99.90;;;;;;4996705;28;20080;-81
2022/05/31 01:40:49;;;;;;;6.63;3.40;;;7.80;99.90;;;;;;5002345;28;20034;-81
2022/05/31 01:43:15;;;;;;;5.97;3.47;;;7.70;99.90;;;;;;5004437;28;20037;-81
2022/05/31 01:45:51;;;;;;;4.53;3.28;;;7.60;99.90;;;;;;5003220;28;20026;-82
2022/05/31 01:48:17;;;;;;;4.55;2.85;;;7.40;99.90;;;;;;4997949;28;20053;-82
2022/05/31 01:50:45;;;;;;;4.40;3.20;;;7.30;99.90;;;;;;5002274;28;20490;-82
2022/05/31 01:53:12;;;;;;;4.75;2.78;;;7.30;99.90;;;;;;5005093;28;20158;-82
2022/05/31 01:55:40;;;;;;;5.30;3.38;;;7.20;99.90;;;;;;5001637;28;20038;-81
2022/05/31 01:58:08;;;;;;;6.07;3.13;;;7.10;99.90;;;;;;5002263;28;20030;-82
2022/05/31 02:00:35;;;;;;;5.13;3.05;;;7.20;99.90;;;;;;4993356;28;20724;-81
2022/05/31 02:03:04;;;;;;;4.50;2.85;;;7.20;99.90;;;;;;4998140;28;20026;-81
2022/05/31 02:05:30;;;;;;;6.00;3.03;;;7.30;99.90;;;;;;4994528;28;20084;-81
2022/05/31 02:08:02;;;;;;;7.07;3.55;;;7.30;99.90;;;;;;4993331;28;20038;-81
2022/05/31 02:10:28;;;;;;;5.38;3.22;;;7.30;99.90;;;;;;5001274;28;20040;-81
2022/05/31 02:12:54;;;;;;;6.60;4.40;;;7.40;99.90;;;;;;4994414;28;20580;-80
2022/05/31 02:15:22;;;;;;;6.40;3.88;;;7.40;99.90;;;;;;4994012;28;20085;-80
2022/05/31 02:17:47;;;;;;;10.07;3.95;;;7.40;99.90;;;;;;5000174;28;20029;-80
2022/05/31 02:20:13;;;;;;;10.10;4.20;;;7.40;99.90;;;;;;4998767;28;20033;-80
2022/05/31 02:22:39;;;;;;;8.70;3.75;;;7.30;99.90;;;;;;4996871;28;20053;-80
2022/05/31 02:25:06;;;;;;;9.70;4.10;;;7.30;99.90;;;;;;5000538;28;20030;-80
2022/05/31 02:27:31;;;;;;;7.32;4.53;;;7.30;99.90;;;;;;5005969;28;20560;-80
2022/05/31 02:29:57;;;;;;;7.63;5.03;;;7.30;99.90;;;;;;4995521;28;20030;-80
2022/05/31 02:32:23;;;;;;;7.90;4.72;;;7.30;99.90;;;;;;4998479;28;20528;-79
2022/05/31 02:34:50;;;;;;;7.90;4.55;;;7.40;99.90;;;;;;5005315;28;20084;-80
2022/05/31 02:37:18;;;;;;;7.90;5.00;;;7.40;99.90;;;;;;5004768;28;20394;-80
2022/05/31 02:39:43;;;;;;;8.25;4.72;;;7.40;99.90;;;;;;4997047;28;20108;-80
2022/05/31 02:42:10;;;;;;;10.20;4.97;;;7.40;99.90;;;;;;4998268;28;20050;-80
2022/05/31 02:44:37;;;;;;;8.77;4.80;;;7.50;99.90;;;;;;4999417;28;20033;-80
2022/05/31 02:47:03;;;;;;;9.50;5.65;;;7.50;99.90;;;;;;5003580;28;20033;-80
2022/05/31 02:49:29;;;;;;;9.10;5.70;;;7.40;99.90;;;;;;4999770;28;20549;-80
2022/05/31 02:51:58;;;;;;;10.13;5.32;;;7.50;99.90;;;;;;5002036;28;20045;-80
2022/05/31 02:54:49;;;;;;;12.13;5.40;;;7.50;99.90;;;;;;4996424;28;20022;-80
2022/05/31 02:57:14;;;;;;;9.63;4.82;;;7.50;99.90;;;;;;4999929;28;20033;-80
2022/05/31 02:59:40;;;;;;;13.00;5.70;;;7.40;99.90;;;;;;4996360;28;20028;-80
2022/05/31 03:02:06;;;;;;;13.05;5.57;;;7.40;99.90;;;;;;4999146;28;20395;-79
2022/05/31 03:04:31;;;;;;;13.93;5.85;;;7.30;99.90;;;;;;5000702;28;20111;-80
2022/05/31 03:07:01;;;;;;;12.07;5.78;;;7.40;99.90;;;;;;4998948;28;20517;-80
2022/05/31 03:09:28;;;;;;;14.85;6.95;;;7.30;99.90;;;;;;5000008;28;20397;-80
2022/05/31 03:11:54;;;;;;;12.10;6.60;;;7.30;99.90;;;;;;4991529;28;20026;-79
2022/05/31 03:14:35;;;;;;;11.27;6.10;;;7.30;99.90;;;;;;4999395;28;20030;-81
2022/05/31 03:17:03;;;;;;;11.82;7.45;;;7.40;99.90;;;;;;5003361;28;20018;-80
2022/05/31 03:19:35;;;;;;;12.35;6.95;;;7.30;99.90;;;;;;4994987;28;20032;-81
2022/05/31 03:22:07;;;;;;;12.00;7.15;;;7.40;99.90;;;;;;4998089;28;20165;-80
2022/05/31 03:24:38;;;;;;;16.92;7.40;;;7.40;99.90;;;;;;5003902;28;20057;-80
2022/05/31 03:27:06;;;;;;;12.68;7.10;;;7.40;99.90;;;;;;4997238;28;20584;-80
2022/05/31 03:29:34;;;;;;;14.93;7.43;;;7.40;99.90;;;;;;4999430;28;20400;-80
2022/05/31 03:31:59;;;;;;;14.18;6.70;;;7.40;99.90;;;;;;4999173;28;20041;-80
2022/05/31 03:34:25;;;;;;;13.32;7.10;;;7.50;99.90;;;;;;4998109;28;20041;-80
2022/05/31 03:36:51;;;;;;;12.38;7.88;;;7.50;99.90;;;;;;4999685;28;20037;-80
2022/05/31 03:39:16;;;;;;;12.98;7.10;;;7.50;99.90;;;;;;4995763;28;20021;-80
2022/05/31 03:41:42;;;;;;;10.77;6.65;;;7.50;99.90;;;;;;5001474;28;20611;-80
2022/05/31 03:44:09;;;;;;;9.75;6.05;;;7.50;99.90;;;;;;4999243;28;20076;-79
2022/05/31 03:46:34;;;;;;;16.10;6.53;;;7.50;99.90;;;;;;5001733;28;20034;-80
2022/05/31 03:49:00;;;;;;;13.68;6.40;;;7.50;99.90;;;;;;4989949;28;20022;-80
2022/05/31 03:51:26;;;;;;;11.00;5.65;;;7.50;99.90;;;;;;4996896;28;20125;-80
2022/05/31 03:53:51;;;;;;;8.73;5.75;;;7.50;99.90;;;;;;4997924;28;20036;-80
2022/05/31 03:56:17;;;;;;;9.75;5.28;;;7.50;99.90;;;;;;4997582;28;20034;-80
2022/05/31 03:58:43;;;;;;;9.80;5.40;;;7.50;99.90;;;;;;4992586;28;20034;-80
2022/05/31 04:01:08;;;;;;;7.57;5.05;;;7.60;99.90;;;;;;4995874;28;20023;-80
2022/05/31 04:03:34;;;;;;;9.73;5.10;;;7.60;99.90;;;;;;4999292;28;20033;-80
2022/05/31 04:05:59;;;;;;;9.70;5.10;;;7.60;99.90;;;;;;4996222;28;20035;-80
2022/05/31 04:08:25;;;;;;;11.25;5.30;;;7.60;99.90;;;;;;5001912;28;20045;-80
2022/05/31 04:10:53;;;;;;;8.52;5.28;;;7.60;99.90;;;;;;5000951;28;20080;-80
2022/05/31 04:13:19;;;;;;;9.60;5.35;;;7.60;99.90;;;;;;4998505;28;20209;-79
2022/05/31 04:15:44;;;;;;;10.30;5.82;;;7.60;99.90;;;;;;5000776;28;20091;-80
2022/05/31 04:18:11;;;;;;;9.32;5.05;;;7.60;99.90;;;;;;4997575;28;20027;-79
2022/05/31 04:20:37;;;;;;;9.30;5.25;;;7.60;99.90;;;;;;4998624;28;20050;-79
2022/05/31 04:26:01;;;;;;;8.10;5.07;;;7.70;99.90;;;;;;4996562;28;20520;-79
2022/05/31 04:28:27;;;;;;;9.00;5.03;;;7.70;99.90;;;;;;4991752;28;20117;-79
2022/05/31 04:30:52;;;;;;;11.43;5.30;;;7.70;99.90;;;;;;4990657;28;20113;-79
2022/05/31 04:33:18;;;;;;;11.85;5.32;;;7.80;99.90;;;;;;4995808;28;20041;-79
2022/05/31 04:35:43;;;;;;;8.57;5.13;;;7.70;99.90;;;;;;4305974;28;10021830;-76
2022/05/31 04:38:09;;;;;;;9.43;5.30;;;7.70;99.90;;;;;;5030367;28;20050;-79
2022/05/31 04:40:38;;;;;;;9.93;5.65;;;7.70;99.90;;;;;;5038562;28;20033;-79
2022/05/31 04:43:05;;;;;;;8.57;4.75;;;7.70;99.90;;;;;;5032017;28;20071;-79
2022/05/31 04:45:31;;;;;;;12.50;5.70;;;7.70;99.90;;;;;;5029733;28;20030;-79
2022/05/31 04:47:57;;;;;;;8.02;5.38;;;7.80;99.90;;;;;;5025024;28;20043;-79
2022/05/31 04:50:23;;;;;;;9.43;4.93;;;7.80;99.90;;;;;;5030687;28;20029;-79
2022/05/31 04:52:48;;;;;;;11.60;5.82;;;7.80;99.90;;;;;;5033317;28;20044;-79
2022/05/31 04:55:14;;;;;;;15.32;5.70;;;7.80;99.90;;;;;;5035117;28;20028;-79
2022/05/31 04:57:40;;;;;;;8.57;5.32;;;7.80;99.90;;;;;;5029799;28;20043;-80
2022/05/31 05:00:06;;;;;;;11.57;5.55;;;7.80;99.90;;;;;;5027496;28;20060;-80
2022/05/31 05:02:32;;;;;;;9.85;5.72;;;7.80;99.90;;;;;;5023233;28;20028;-81
2022/05/31 05:04:58;;;;;;;7.45;5.75;;;7.80;99.90;;;;;;5029251;28;20037;-80
2022/05/31 05:07:23;;;;;;;10.20;5.95;;;7.80;99.90;;;;;;5036135;28;20802;-80
2022/05/31 05:09:49;;;;;;;10.73;5.53;;;7.80;99.90;;;;;;4993864;28;20053;-80
2022/05/31 05:12:15;;;;;;;7.32;5.25;;;7.80;99.90;;;;;;4999248;28;20125;-80
2022/05/31 05:14:40;;;;;;;7.68;5.63;;;7.80;99.90;;;;;;5000579;28;20029;-80
2022/05/31 05:17:06;;;;;;;12.10;5.85;;;7.80;99.90;;;;;;5001421;28;20610;-80
2022/05/31 05:19:32;;;;;;;9.38;6.00;;;7.80;99.90;;;;;;4992810;28;20054;-81
2022/05/31 05:21:58;;;;;;;10.80;5.85;;;7.90;99.90;;;;;;5004070;28;20076;-81
2022/05/31 05:24:24;;;;;;;10.05;6.93;;;8.00;99.90;;;;;;5002898;28;20030;-81
2022/05/31 05:26:49;;;;;;;9.43;6.63;;;8.10;99.90;;;;;;5005567;28;20033;-81
2022/05/31 05:32:00;;;;;;;12.55;6.55;;;8.20;99.90;;;;;;5004200;28;20053;-81
2022/05/31 05:34:25;;;;;;;16.23;7.18;;;8.30;99.90;;;;;;5004422;28;20054;-81
2022/05/31 05:36:51;;;;;;;12.35;7.57;;;8.40;99.90;;;;;;5006560;28;20526;-81
2022/05/31 05:39:17;;;;;;;11.73;7.75;;;8.50;99.90;;;;;;5001267;28;20034;-81
2022/05/31 05:41:42;;;;;;;13.82;7.85;;;8.60;99.90;;;;;;5007484;28;20030;-81
2022/05/31 05:44:09;;;;;;;16.85;7.38;;;8.70;99.90;;;;;;5000583;28;20216;-81
2022/05/31 05:46:35;;;;;;;16.55;7.45;;;8.80;99.90;;;;;;5000212;28;20500;-81
2022/05/31 05:49:02;;;;;;;11.57;7.07;;;9.00;99.90;;;;;;5000581;28;20498;-80
2022/05/31 05:51:29;;;;;;;9.52;6.75;;;9.10;99.90;;;;;;5000302;28;20376;-82
2022/05/31 05:53:55;;;;;;;12.70;7.20;;;9.10;99.90;;;;;;5004822;28;20517;-81
2022/05/31 05:56:22;;;;;;;16.80;7.57;;;9.20;99.90;;;;;;4996990;28;20062;-81
2022/05/31 05:58:48;;;;;;;21.42;8.55;;;9.30;99.90;;;;;;4997174;28;20025;-81
2022/05/31 06:01:24;;;;;;;20.08;8.85;;;9.30;99.90;;;;;;4998865;28;20045;-81
2022/05/31 06:03:56;;;;;;;16.08;8.05;;;9.40;99.90;;;;;;4997492;28;20068;-82
2022/05/31 06:06:23;;;;;;;13.75;7.55;;;9.40;99.90;;;;;;5005426;28;20739;-82
2022/05/31 06:09:03;;;;;;;23.38;10.95;;;9.50;99.90;;;;;;5001501;28;20041;-81
2022/05/31 06:11:39;;;;;;;27.85;11.63;;;9.60;99.90;;;;;;4999711;28;20528;-81
2022/05/31 06:14:10;;;;;;;25.52;11.35;;;9.60;99.90;;;;;;5002637;28;20048;-81
2022/05/31 06:16:47;;;;;;;24.08;11.45;;;9.70;99.90;;;;;;5005609;28;20112;-81
2022/05/31 06:19:27;;;;;;;26.00;11.32;;;9.80;99.90;;;;;;4993714;28;20030;-81
2022/05/31 06:21:53;;;;;;;21.58;10.68;;;9.80;99.90;;;;;;5000018;28;20123;-82
2022/05/31 06:24:20;;;;;;;24.88;11.05;;;9.90;99.90;;;;;;5000648;28;20509;-82
2022/05/31 06:26:46;;;;;;;27.15;10.85;;;10.20;99.90;;;;;;5006397;28;20030;-81
2022/05/31 06:29:11;;;;;;;24.80;10.18;;;10.50;99.90;;;;;;5005333;28;20592;-82
2022/05/31 06:31:38;;;;;;;21.45;9.88;;;10.70;99.90;;;;;;4999626;28;20025;-81
2022/05/31 06:34:04;;;;;;;22.48;10.50;;;11.10;99.90;;;;;;4999511;28;20040;-81
2022/05/31 06:36:30;;;;;;;23.92;9.63;;;11.40;99.90;;;;;;4999882;28;20030;-81
2022/05/31 06:38:55;;;;;;;23.77;9.98;;;11.60;99.90;;;;;;4999332;28;20022;-80
2022/05/31 06:41:21;;;;;;;18.35;9.40;;;11.80;99.90;;;;;;4994800;28;20030;-81
2022/05/31 06:43:47;;;;;;;18.35;8.38;;;12.00;99.90;;;;;;4996580;28;20445;-81
2022/05/31 06:46:13;;;;;;;18.67;8.13;;;12.20;99.90;;;;;;4999276;28;20065;-80
2022/05/31 06:48:39;;;;;;;22.33;9.90;;;12.40;99.90;;;;;;4995849;28;20022;-81
2022/05/31 06:51:07;;;;;;;15.02;7.80;;;12.60;99.90;;;;;;4998578;28;20700;-81
2022/05/31 06:59:02;;;;;;;16.88;7.78;;;13.00;99.90;;;;;;4993078;28;20567;-81
2022/05/31 07:01:31;;;;;;;14.27;7.95;;;13.20;99.90;;;;;;5000045;28;20040;-82
2022/05/31 07:03:59;;;;;;;18.98;7.65;;;13.30;99.90;;;;;;4999554;28;20438;-81
2022/05/31 07:06:25;;;;;;;13.48;6.90;;;13.40;99.90;;;;;;5005471;28;20034;-81
2022/05/31 07:08:50;;;;;;;10.43;6.05;;;13.30;99.90;;;;;;5002088;28;20113;-81
2022/05/31 07:11:16;;;;;;;13.07;6.40;;;13.20;99.90;;;;;;4999764;28;20029;-82
2022/05/31 07:13:42;;;;;;;12.50;6.70;;;13.20;99.90;;;;;;5003156;28;20026;-81
2022/05/31 07:16:07;;;;;;;11.15;6.00;;;13.10;99.90;;;;;;5002527;28;20032;-82
2022/05/31 07:18:33;;;;;;;12.77;6.72;;;13.00;99.90;;;;;;5000349;28;20052;-82
2022/05/31 07:20:58;;;;;;;9.82;6.05;;;12.80;99.90;;;;;;5003950;28;20029;-82
2022/05/31 07:23:25;;;;;;;17.25;6.88;;;12.70;99.90;;;;;;4988764;28;20022;-82
2022/05/31 07:25:52;;;;;;;11.13;6.65;;;12.60;99.90;;;;;;4994348;28;20171;-82
2022/05/31 07:28:18;;;;;;;10.65;5.95;;;12.60;99.90;;;;;;4993062;28;20054;-81
2022/05/31 07:30:44;;;;;;;11.45;5.78;;;12.80;99.90;;;;;;4997847;28;20433;-80
2022/05/31 07:33:12;;;;;;;10.73;5.22;;;13.20;99.90;;;;;;4990420;28;20245;-81
2022/05/31 07:35:41;;;;;;;8.48;5.25;;;13.30;99.90;;;;;;5004119;28;20503;-81
2022/05/31 07:38:07;;;;;;;9.18;5.30;;;13.40;99.90;;;;;;4998956;28;20038;-81
2022/05/31 07:40:34;;;;;;;8.90;4.90;;;13.30;99.90;;;;;;4991197;28;20037;-82
2022/05/31 07:43:00;;;;;;;8.48;4.97;;;13.30;99.90;;;;;;4997769;28;20505;-82
2022/05/31 07:45:25;;;;;;;11.88;4.82;;;13.30;99.90;;;;;;4999475;28;20042;-82
2022/05/31 07:47:51;;;;;;;6.65;4.40;;;13.30;99.90;;;;;;4993052;28;20048;-82
2022/05/31 07:50:17;;;;;;;7.82;4.47;;;13.40;99.90;;;;;;4996434;28;20394;-81
2022/05/31 07:52:43;;;;;;;9.38;4.30;;;13.50;99.90;;;;;;4997349;28;20115;-80
2022/05/31 07:55:09;;;;;;;8.38;3.92;;;13.50;99.90;;;;;;5005205;28;20405;-79
2022/05/31 08:00:19;;;;;;;9.75;4.47;;;13.70;99.90;;;;;;4995416;28;20088;-77
2022/05/31 08:02:45;;;;;;;7.40;3.60;;;13.90;99.90;;;;;;5000062;28;20030;-75
2022/05/31 08:05:10;;;;;;;8.68;4.00;;;14.20;99.90;;;;;;4992873;28;20058;-80
2022/05/31 08:07:36;;;;;;;5.25;3.20;;;14.60;99.90;;;;;;5000236;28;20087;-76
2022/05/31 08:10:02;;;;;;;6.28;3.03;;;14.90;99.90;;;;;;4993400;28;20034;-76
2022/05/31 08:12:27;;;;;;;5.50;3.15;;;15.40;99.90;;;;;;5002458;28;20061;-80
2022/05/31 08:14:53;;;;;;;6.15;3.45;;;15.80;99.90;;;;;;4996557;28;20030;-80
2022/05/31 08:17:18;;;;;;;6.47;2.72;;;15.90;99.90;;;;;;4996936;28;20033;-80
2022/05/31 08:19:44;;;;;;;5.88;2.88;;;16.00;99.90;;;;;;4992884;28;20079;-81
2022/05/31 08:22:10;;;;;;;5.63;2.70;;;16.10;99.90;;;;;;4998741;28;20419;-79
2022/05/31 08:24:36;;;;;;;7.15;2.78;;;16.20;99.90;;;;;;4997614;28;20034;-77
2022/05/31 08:27:02;;;;;;;6.28;2.70;;;16.20;99.90;;;;;;5005247;28;20278;-80
2022/05/31 08:29:28;;;;;;;5.82;2.70;;;16.40;99.90;;;;;;5001642;28;20051;-76
2022/05/31 08:31:54;;;;;;;5.15;2.70;;;16.70;99.90;;;;;;5002373;28;20076;-78
2022/05/31 08:34:20;;;;;;;8.60;2.80;;;16.60;99.90;;;;;;5001197;28;20026;-79
2022/05/31 08:36:46;;;;;;;5.40;2.65;;;16.60;99.90;;;;;;4999074;28;20041;-81
2022/05/31 08:39:11;;;;;;;5.28;1.95;;;16.70;99.90;;;;;;4988225;28;20033;-78
2022/05/31 08:41:45;;;;;;;4.50;2.40;;;16.90;99.90;;;;;;5002960;28;20026;-82
2022/05/31 08:44:28;;;;;;;8.35;2.50;;;17.10;99.90;;;;;;5006040;28;20507;-76
2022/05/31 08:47:17;;;;;;;4.93;2.70;;;17.30;99.90;;;;;;5006547;28;20438;-77
2022/05/31 08:52:53;;;;;;;5.20;2.35;;;17.20;99.90;;;;;;5006633;28;20385;-77
2022/05/31 08:58:17;;;;;;;7.50;2.65;;;17.00;99.90;;;;;;4993339;28;20040;-78
2022/05/31 09:00:44;;;;;;;6.05;2.78;;;17.00;99.90;;;;;;4997447;28;20037;-75
2022/05/31 09:03:09;;;;;;;5.90;2.40;;;17.10;99.90;;;;;;5002274;28;20041;-76
2022/05/31 09:05:42;;;;;;;8.93;2.40;;;17.00;99.90;;;;;;5004826;28;20030;-76
2022/05/31 09:08:14;;;;;;;3.78;2.00;;;17.00;99.90;;;;;;5000960;28;20353;-77
2022/05/31 09:10:43;;;;;;;4.93;1.90;;;17.10;99.90;;;;;;4997886;28;20057;-80
2022/05/31 09:13:27;;;;;;;3.55;2.00;;;17.40;99.90;;;;;;5002909;28;20022;-77
2022/05/31 09:16:06;;;;;;;3.88;1.80;;;17.50;99.90;;;;;;4998262;28;20069;-75
2022/05/31 09:18:50;;;;;;;5.03;2.03;;;17.70;99.90;;;;;;5001690;28;20250;-79
2022/05/31 09:21:41;;;;;;;3.58;1.60;;;17.80;99.90;;;;;;4998093;28;20026;-78
2022/05/31 09:24:11;;;;;;;1.83;1.42;;;18.10;99.90;;;;;;5007850;28;20037;-80
2022/05/31 09:26:55;;;;;;;3.17;1.77;;;18.40;99.70;;;;;;4994270;28;20514;-79
2022/05/31 09:29:25;;;;;;;2.63;1.50;;;18.60;98.80;;;;;;4995152;28;20091;-77
2022/05/31 09:32:09;;;;;;;3.78;1.90;;;18.80;99.90;;;;;;5004164;28;20116;-78
2022/05/31 09:34:46;;;;;;;2.30;1.80;;;18.80;99.90;;;;;;5004150;28;20104;-81
2022/05/31 09:37:31;;;;;;;1.90;1.60;;;18.70;99.90;;;;;;4999878;28;20045;-79
2022/05/31 09:40:25;;;;;;;2.28;1.60;;;18.70;99.90;;;;;;4991011;28;20034;-79
2022/05/31 09:43:15;;;;;;;3.53;1.80;;;18.80;96.00;;;;;;4996070;28;20022;-77
2022/05/31 09:46:11;;;;;;;3.65;1.67;;;18.90;92.60;;;;;;4987912;28;20049;-77
2022/05/31 09:48:51;;;;;;;4.18;1.80;;;19.10;94.50;;;;;;4990884;28;20176;-79
2022/05/31 09:51:39;;;;;;;4.20;1.60;;;19.30;91.30;;;;;;4997000;28;20219;-80
2022/05/31 09:57:05;;;;;;;1.50;1.23;;;19.50;86.80;;;;;;4995972;28;20406;-82
2022/05/31 09:59:32;;;;;;;4.20;1.55;;;19.70;86.90;;;;;;4998500;28;20069;-82
2022/05/31 10:02:25;;;;;;;2.15;1.20;;;19.80;86.20;;;;;;5001683;28;20264;-81
2022/05/31 10:05:10;;;;;;;2.58;1.52;;;19.90;88.70;;;;;;5002830;28;20068;-82
2022/05/31 10:07:37;;;;;;;3.38;1.42;;;19.90;85.30;;;;;;5002785;28;20044;-82
2022/05/31 10:10:16;;;;;;;1.38;1.27;;;20.10;85.40;;;;;;4988109;28;20030;-82
2022/05/31 10:13:09;;;;;;;1.88;1.35;;;20.30;80.50;;;;;;5004014;28;20033;-82
2022/05/31 10:15:43;;;;;;;2.65;1.20;;;20.10;80.40;;;;;;5000076;28;20036;-82
2022/05/31 10:18:13;;;;;;;2.63;1.10;;;20.00;83.90;;;;;;4996226;28;20029;-82
2022/05/31 10:20:54;;;;;;;2.95;1.10;;;20.20;86.60;;;;;;5005378;28;20292;-82
2022/05/31 10:23:23;;;;;;;1.77;1.17;;;20.40;80.50;;;;;;4997703;28;20034;-82
2022/05/31 10:25:57;;;;;;;1.85;1.27;;;20.40;84.70;;;;;;4999722;28;20041;-82
2022/05/31 10:28:37;;;;;;;2.58;1.40;;;20.70;88.20;;;;;;4998266;28;20052;-82
2022/05/31 10:31:27;;;;;;;1.85;1.05;;;20.80;84.20;;;;;;4987769;28;20529;-82
2022/05/31 10:33:59;;;;;;;1.95;1.10;;;20.80;83.60;;;;;;4996952;28;20041;-84
2022/05/31 10:36:30;;;;;;;1.60;1.08;;;20.70;85.00;;;;;;4990550;28;20038;-83
2022/05/31 10:39:06;;;;;;;1.80;1.10;;;;;;;;;;4994740;28;20107;-84
2022/05/31 10:41:32;;;;;;;1.15;1.00;;;20.40;83.40;;;;;;4990897;28;20034;-83
2022/05/31 10:44:16;;;;;;;3.28;1.02;;;20.40;88.30;;;;;;5006556;28;20026;-83
2022/05/31 10:46:45;;;;;;;1.92;1.15;;;20.50;86.70;;;;;;4999275;28;20041;-83
2022/05/31 10:49:22;;;;;;;1.00;0.90;;;20.60;84.40;;;;;;4996473;28;20045;-82
2022/05/31 10:52:22;;;;;;;2.47;0.95;;;20.60;86.20;;;;;;4998656;28;20037;-82
2022/05/31 10:54:52;;;;;;;3.20;1.27;;;20.50;83.30;;;;;;5005972;28;20551;-82
2022/05/31 10:57:42;;;;;;;2.00;1.00;;;20.40;81.60;;;;;;5001606;28;20044;-84
2022/05/31 11:00:15;;;;;;;5.55;1.00;;;20.30;81.50;;;;;;4990783;28;20445;-82
2022/05/31 11:02:44;;;;;;;2.78;1.05;;;20.30;84.70;;;;;;5000919;28;20026;-81
2022/05/31 11:05:15;;;;;;;0.98;0.82;;;20.20;85.90;;;;;;4298626;28;10001156;-86
2022/05/31 11:11:30;;;;;;;1.85;1.08;;;20.20;88.80;;;;;;4979058;28;20556;-83
2022/05/31 11:13:56;;;;;;;1.73;0.90;;;20.20;87.50;;;;;;4989285;28;20034;-79
2022/05/31 11:16:43;;;;;;;1.63;1.13;;;20.00;86.90;;;;;;4992485;28;20038;-80
2022/05/31 11:19:25;;;;;;;2.60;0.95;;;19.90;86.80;;;;;;4985760;28;20087;-80
2022/05/31 11:22:21;;;;;;;3.13;1.07;;;19.90;88.70;;;;;;4990087;28;20117;-78
2022/05/31 11:25:20;;;;;;;1.13;0.80;;;19.90;88.00;;;;;;4987230;28;20592;-79
2022/05/31 11:27:58;;;;;;;2.45;0.88;;;20.10;88.60;;;;;;4985887;28;20030;-80
2022/05/31 11:30:36;;;;;;;1.15;0.95;;;20.50;88.20;;;;;;4972799;28;20069;-84
2022/05/31 11:33:19;;;;;;;1.75;0.95;;;20.80;84.20;;;;;;4979028;28;20042;-85
2022/05/31 11:36:12;;;;;;;2.65;1.20;;;20.70;83.40;;;;;;4984881;28;20472;-86
2022/05/31 11:38:46;;;;;;;1.00;0.90;;;20.70;81.30;;;;;;5017498;28;20465;-86
2022/05/31 11:41:21;;;;;;;1.45;0.85;;;20.90;82.30;;;;;;5012985;28;20084;-85
2022/05/31 11:44:05;;;;;;;0.95;0.80;;;21.20;82.70;;;;;;5016823;28;20456;-81
2022/05/31 11:46:50;;;;;;;2.58;1.00;;;21.20;79.80;;;;;;5014619;28;20037;-75
2022/05/31 11:49:42;;;;;;;3.15;1.00;;;21.40;81.40;;;;;;5009497;28;20375;-77
2022/05/31 11:52:27;;;;;;;4.30;1.02;;;;;;;;;;5005284;28;20505;-75
2022/05/31 11:55:28;;;;;;;2.70;0.98;;;22.30;93.10;;;;;;5019641;28;20509;-78
2022/05/31 11:58:15;;;;;;;3.03;1.02;;;22.40;85.40;;;;;;5005965;28;20034;-76
2022/05/31 12:01:03;;;;;;;1.60;0.90;;;22.40;84.80;;;;;;5004013;28;20049;-75
2022/05/31 12:03:34;;;;;;;0.93;0.93;;;22.10;83.60;;;;;;5009252;28;20079;-77
2022/05/31 12:06:23;;;;;;;2.67;1.10;;;21.90;84.00;;;;;;5009600;28;20422;-75
2022/05/31 12:09:13;;;;;;;1.55;1.08;;;21.80;86.40;;;;;;5012504;28;20451;-76
2022/05/31 12:11:42;;;;;;;1.83;1.00;;;21.80;86.60;;;;;;5012449;28;20401;-75
2022/05/31 12:14:13;;;;;;;2.03;1.20;;;21.70;86.80;;;;;;5019479;28;20029;-76
2022/05/31 12:16:41;;;;;;;2.33;1.13;;;21.80;88.70;;;;;;5015502;28;20373;-76
2022/05/31 12:19:06;;;;;;;2.55;1.00;;;21.90;88.90;;;;;;5011451;28;20048;-75
2022/05/31 12:21:47;;;;;;;1.30;0.90;;;21.90;90.10;;;;;;5012468;28;20125;-75
2022/05/31 12:24:16;;;;;;;1.27;0.80;;;22.00;89.10;;;;;;5019100;28;20040;-75
2022/05/31 12:26:45;;;;;;;2.28;1.10;;;21.80;87.70;;;;;;5021786;28;20347;-76
2022/05/31 12:29:22;;;;;;;1.75;1.08;;;21.90;89.50;;;;;;5008420;28;20042;-75
2022/05/31 12:31:48;;;;;;;1.70;1.00;;;21.90;90.10;;;;;;5013825;28;20393;-75
2022/05/31 12:34:19;;;;;;;1.63;1.10;;;21.60;89.80;;;;;;5013349;28;20030;-75
2022/05/31 12:37:04;;;;;;;3.17;1.45;;;21.40;90.70;;;;;;5021132;28;20465;-75
2022/05/31 12:39:33;;;;;;;2.17;1.13;;;21.60;66.30;;;;;;5008390;28;20036;-76
2022/05/31 12:42:14;;;;;;;2.10;0.98;;;21.70;66.60;;;;;;5014926;28;20769;-78
2022/05/31 12:44:47;;;;;;;3.22;1.23;;;21.90;68.30;;;;;;5021801;28;20029;-76
2022/05/31 12:47:31;;;;;;;3.10;1.23;;;22.10;64.10;;;;;;5031820;28;20041;-77
2022/05/31 12:50:05;;;;;;;1.85;1.10;;;22.30;64.30;;;;;;5015693;28;20636;-77
2022/05/31 12:54:58;;;;;;;3.83;1.00;;;22.50;59.50;;;;;;5012276;28;20025;-77
2022/05/31 13:00:28;;;;;;;5.00;0.90;;;22.40;64.30;;;;;;5026134;28;20045;-77
2022/05/31 13:02:55;;;;;;;2.75;1.00;;;22.30;65.10;;;;;;5011636;28;20021;-77
2022/05/31 13:05:40;;;;;;;1.35;0.80;;;21.90;65.90;;;;;;5009052;28;20552;-77
2022/05/31 13:08:18;;;;;;;3.22;1.00;;;21.70;66.80;;;;;;5008924;28;20453;-77
2022/05/31 13:22:06;;;;;;;1.88;0.85;;;21.40;69.20;;;;;;5028427;28;20087;-79
2022/05/31 13:24:37;;;;;;;2.78;1.00;;;21.60;68.10;;;;;;5018777;28;20025;-79
2022/05/31 13:27:06;;;;;;;1.05;0.77;;;21.90;68.60;;;;;;5028246;28;20046;-79
2022/05/31 13:29:32;;;;;;;1.10;0.82;;;22.00;67.30;;;;;;5025499;28;20021;-79
2022/05/31 13:32:03;;;;;;;1.42;0.80;;;22.10;65.60;;;;;;5008678;28;20082;-79
2022/05/31 13:34:34;;;;;;;2.22;0.90;;;22.20;67.50;;;;;;5008414;28;20030;-79
2022/05/31 13:37:11;;;;;;;2.10;0.70;;;21.90;67.90;;;;;;5015387;28;20032;-79
2022/05/31 13:39:42;;;;;;;0.95;0.70;;;21.60;68.00;;;;;;5024414;28;20083;-79
2022/05/31 13:42:17;;;;;;;3.47;0.70;;;21.20;69.40;;;;;;5019126;28;20474;-79
2022/05/31 13:44:43;;;;;;;3.15;0.70;;;20.80;72.30;;;;;;5027931;28;20029;-79
2022/05/31 13:47:11;;;;;;;1.48;0.95;;;20.50;74.00;;;;;;5019743;28;20030;-80
2022/05/31 13:49:40;;;;;;;3.13;1.35;;;20.10;73.20;;;;;;5010494;28;20389;-79